Time;durP1;ratioP1;P1;durP2;ratioP2;P2;SDS_P1;SDS_P2;PMS_P1;PMS_P2;Temp;Humidity;BMP_temperature;BMP_pressure;BME280_temperature;BME280_humidity;BME280_pressure;Samples;Min_cycle;Max_cycle;Signal;HPM_P1;HPM_P2
2022/07/07 00:01:44;;;;;;;;;;;;;;;24.20;34.20;99946.44;5016334;28;20276;-80
2022/07/07 00:04:09;;;;;;;;;;;;;;;24.21;34.58;99955.44;5016240;28;20279;-82
2022/07/07 00:06:35;;;;;;;;;;;;;;;24.21;34.21;99950.78;5016298;28;19913;-80
2022/07/07 00:09:00;;;;;;;;;;;;;;;24.20;34.27;99946.44;5016288;28;20388;-82
2022/07/07 00:11:25;;;;;;;;;;;;;;;24.21;34.52;99948.06;5015804;28;19913;-80
2022/07/07 00:13:51;;;;;;;;;;;;;;;24.19;34.22;99951.06;4998377;28;19968;-79
2022/07/07 00:16:16;;;;;;;;;;;;;;;24.21;34.39;99947.25;5016142;28;19937;-82
2022/07/07 00:18:41;;;;;;;;;;;;;;;24.21;34.47;99952.72;5016028;28;19913;-79
2022/07/07 00:21:07;;;;;;;;;;;;;;;24.21;34.23;99941.78;5016032;28;20292;-83
2022/07/07 00:23:32;;;;;;;;;;;;;;;24.21;34.16;99948.06;4981553;28;19960;-80
2022/07/07 00:25:57;;;;;;;;;;;;;;;24.19;34.44;99945.59;5015029;28;20013;-81
2022/07/07 00:28:23;;;;;;;;;;;;;;;24.17;34.18;99947.81;5016026;28;19925;-82
2022/07/07 00:30:48;;;;;;;;;;;;;;;24.18;34.14;99944.00;5015742;28;19913;-79
2022/07/07 00:33:14;;;;;;;;;;;;;;;24.17;34.25;99942.34;5015632;28;19913;-82
2022/07/07 00:35:40;;;;;;;;;;;;;;;24.18;34.44;99943.16;5015527;28;19921;-80
2022/07/07 00:38:05;;;;;;;;;;;;;;;24.18;34.07;99945.88;5015742;28;19913;-80
2022/07/07 00:40:30;;;;;;;;;;;;;;;24.16;34.11;99946.22;5015660;28;19913;-81
2022/07/07 00:42:57;;;;;;;;;;;;;;;24.19;34.25;99942.88;5015349;28;20364;-80
2022/07/07 00:45:23;;;;;;;;;;;;;;;24.16;34.07;99943.47;5015693;28;19975;-82
2022/07/07 00:47:48;;;;;;;;;;;;;;;24.17;33.85;99939.63;5015609;28;20341;-79
2022/07/07 00:50:13;;;;;;;;;;;;;;;24.18;33.84;99943.16;5015275;28;20430;-81
2022/07/07 00:52:38;;;;;;;;;;;;;;;24.18;33.86;99938.53;5015840;28;19913;-79
2022/07/07 00:55:04;;;;;;;;;;;;;;;24.15;33.66;99935.56;5015543;28;20457;-80
2022/07/07 00:57:30;;;;;;;;;;;;;;;24.18;33.80;99927.63;4997655;28;19913;-81
2022/07/07 00:59:59;;;;;;;;;;;;;;;24.17;34.00;99931.44;5015431;28;20036;-78
2022/07/07 01:02:25;;;;;;;;;;;;;;;24.17;33.90;99920.50;5015117;28;19918;-81
2022/07/07 01:04:51;;;;;;;;;;;;;;;24.17;33.82;99925.97;4997737;28;19913;-80
2022/07/07 01:07:16;;;;;;;;;;;;;;;24.16;33.81;99932.56;5015379;28;19960;-80
2022/07/07 01:09:42;;;;;;;;;;;;;;;24.15;33.63;99928.19;5014980;28;20360;-81
2022/07/07 01:12:07;;;;;;;;;;;;;;;24.15;33.56;99932.84;5014910;28;19991;-79
2022/07/07 01:14:32;;;;;;;;;;;;;;;24.15;33.75;99924.66;5015305;28;19920;-82
2022/07/07 01:16:57;;;;;;;;;;;;;;;24.16;33.46;99920.81;5015313;28;19913;-79
2022/07/07 01:19:23;;;;;;;;;;;;;;;24.16;33.52;99921.63;5014995;28;19917;-81
2022/07/07 01:21:48;;;;;;;;;;;;;;;24.14;33.49;99921.09;5014752;28;20333;-81
2022/07/07 01:24:13;;;;;;;;;;;;;;;24.15;33.57;99922.72;5014735;28;19914;-79
2022/07/07 01:26:39;;;;;;;;;;;;;;;24.14;33.68;99923.00;5015253;28;19919;-81
2022/07/07 01:29:04;;;;;;;;;;;;;;;24.14;33.31;99915.63;5014983;28;19963;-79
2022/07/07 01:31:30;;;;;;;;;;;;;;;24.17;33.30;99919.72;5014892;28;19913;-82
2022/07/07 01:33:55;;;;;;;;;;;;;;;24.13;33.53;99914.03;5014667;28;20374;-80
2022/07/07 01:36:20;;;;;;;;;;;;;;;24.12;33.37;99906.91;5014616;28;19963;-80
2022/07/07 01:38:46;;;;;;;;;;;;;;;24.15;33.34;99917.28;5014628;28;19976;-81
2022/07/07 01:41:11;;;;;;;;;;;;;;;24.14;33.18;99914.81;5014440;28;19920;-78
2022/07/07 01:43:36;;;;;;;;;;;;;;;24.14;33.36;99915.63;5014711;28;19919;-81
2022/07/07 01:46:01;;;;;;;;;;;;;;;24.14;33.19;99914.81;5014755;28;19917;-80
2022/07/07 01:48:27;;;;;;;;;;;;;;;24.13;33.33;99911.28;5014404;28;20351;-80
2022/07/07 01:50:52;;;;;;;;;;;;;;;24.15;32.98;99917.28;5014207;28;19920;-81
2022/07/07 01:53:17;;;;;;;;;;;;;;;24.13;33.27;99907.75;5014423;28;19924;-80
2022/07/07 01:55:42;;;;;;;;;;;;;;;24.15;33.17;99921.94;5014239;28;19914;-80
2022/07/07 01:58:08;;;;;;;;;;;;;;;24.14;33.09;99915.63;5014596;28;19932;-82
2022/07/07 02:00:33;;;;;;;;;;;;;;;24.13;33.24;99908.56;5014552;28;19941;-80
2022/07/07 02:02:58;;;;;;;;;;;;;;;24.12;33.01;99908.84;5014074;28;19936;-82
2022/07/07 02:05:23;;;;;;;;;;;;;;;24.12;32.88;99909.66;5014631;28;20175;-78
2022/07/07 02:07:49;;;;;;;;;;;;;;;24.12;33.19;99906.91;5014543;28;19913;-80
2022/07/07 02:11:12;;;;;;;;;;;;;;;24.12;33.20;99906.91;5014358;28;20386;-79
2022/07/07 02:12:59;;;;;;;;;;;;;;;24.14;32.99;99909.38;5013978;28;19921;-80
2022/07/07 02:15:25;;;;;;;;;;;;;;;24.10;33.05;99908.34;5013172;28;19917;-80
2022/07/07 02:17:50;;;;;;;;;;;;;;;24.13;33.23;99913.22;5014334;28;19921;-82
2022/07/07 02:20:15;;;;;;;;;;;;;;;24.10;32.78;99916.53;5014288;28;19936;-80
2022/07/07 02:22:40;;;;;;;;;;;;;;;24.11;33.10;99915.41;5014017;28;20273;-81
2022/07/07 02:25:06;;;;;;;;;;;;;;;24.12;33.10;99914.31;5014294;28;19920;-82
2022/07/07 02:27:31;;;;;;;;;;;;;;;24.11;33.26;99918.13;5014215;28;19960;-79
2022/07/07 02:29:56;;;;;;;;;;;;;;;24.09;33.07;99917.59;5013974;28;19913;-82
2022/07/07 02:32:22;;;;;;;;;;;;;;;24.13;33.17;99922.22;5014150;28;19961;-78
2022/07/07 02:34:47;;;;;;;;;;;;;;;24.10;32.95;99924.72;5013718;28;20272;-80
2022/07/07 02:37:12;;;;;;;;;;;;;;;24.10;32.87;99919.25;5014209;28;20000;-81
2022/07/07 02:39:38;;;;;;;;;;;;;;;24.11;32.97;99921.69;5013791;28;20425;-80
2022/07/07 02:42:03;;;;;;;;;;;;;;;24.08;33.13;99916.81;5014066;28;19921;-82
2022/07/07 02:44:28;;;;;;;;;;;;;;;24.08;33.16;99927.72;5014058;28;20020;-79
2022/07/07 02:46:54;;;;;;;;;;;;;;;24.10;33.14;99922.78;5013998;28;20090;-81
2022/07/07 02:49:19;;;;;;;;;;;;;;;24.08;33.09;99925.00;5017385;28;20003;-79
2022/07/07 02:51:44;;;;;;;;;;;;;;;24.08;32.95;99921.47;5017810;28;19918;-81
2022/07/07 02:54:10;;;;;;;;;;;;;;;24.06;32.96;99921.75;5017464;28;19913;-80
2022/07/07 02:56:35;;;;;;;;;;;;;;;24.08;32.96;99919.53;5017818;28;19914;-81
2022/07/07 02:59:00;;;;;;;;;;;;;;;24.09;33.31;99918.41;5018071;28;20329;-80
2022/07/07 03:01:25;;;;;;;;;;;;;;;24.11;33.39;99915.41;5017729;28;19957;-79
2022/07/07 03:03:51;;;;;;;;;;;;;;;24.08;33.29;99908.63;5017663;28;20345;-80
2022/07/07 03:06:16;;;;;;;;;;;;;;;24.10;33.40;99914.59;5017400;28;19917;-80
2022/07/07 03:08:42;;;;;;;;;;;;;;;24.09;33.35;99918.41;5017547;28;19913;-79
2022/07/07 03:11:07;;;;;;;;;;;;;;;24.08;33.43;99911.34;5017071;28;19913;-82
2022/07/07 03:13:32;;;;;;;;;;;;;;;24.11;33.71;99910.78;5017550;28;19945;-78
2022/07/07 03:15:58;;;;;;;;;;;;;;;24.09;33.73;99917.59;5017417;28;20337;-81
2022/07/07 03:18:23;;;;;;;;;;;;;;;24.09;33.50;99917.59;5017407;28;19924;-81
2022/07/07 03:20:48;;;;;;;;;;;;;;;24.07;33.74;99909.72;5017265;28;19944;-80
2022/07/07 03:23:13;;;;;;;;;;;;;;;24.06;33.89;99907.25;5013777;28;19988;-82
2022/07/07 03:25:39;;;;;;;;;;;;;;;24.08;33.89;99910.53;4996201;28;20001;-77
2022/07/07 03:28:04;;;;;;;;;;;;;;;24.07;34.22;99911.63;4997579;28;19917;-79
2022/07/07 03:30:29;;;;;;;;;;;;;;;24.10;33.92;99909.13;4997510;28;20258;-78
2022/07/07 03:32:54;;;;;;;;;;;;;;;24.10;34.22;99900.94;4997127;28;20375;-79
2022/07/07 03:35:20;;;;;;;;;;;;;;;24.10;34.13;99898.22;5013148;28;20004;-79
2022/07/07 03:37:45;;;;;;;;;;;;;;;24.12;34.09;99904.19;5016617;28;20368;-79
2022/07/07 03:40:12;;;;;;;;;;;;;;;24.15;34.39;99911.81;5016929;28;19913;-81
2022/07/07 03:42:37;;;;;;;;;;;;;;;24.18;34.23;99904.94;5016650;28;20386;-79
2022/07/07 03:45:03;;;;;;;;;;;;;;;24.22;34.26;99897.81;4999189;28;20004;-81
2022/07/07 03:47:29;;;;;;;;;;;;;;;24.24;34.17;99903.00;4999353;28;19913;-78
2022/07/07 03:49:54;;;;;;;;;;;;;;;24.25;34.20;99899.13;4998990;28;20372;-79
2022/07/07 03:52:19;;;;;;;;;;;;;;;24.27;34.17;99905.94;5016706;28;19917;-80
2022/07/07 03:54:44;;;;;;;;;;;;;;;24.30;34.15;99901.81;5016701;28;19924;-77
2022/07/07 03:57:10;;;;;;;;;;;;;;;24.33;34.26;99901.22;5016402;28;19913;-79
2022/07/07 03:59:35;;;;;;;;;;;;;;;24.37;34.42;99894.09;5016553;28;19917;-78
2022/07/07 04:02:00;;;;;;;;;;;;;;;24.35;34.43;99896.28;5016562;28;19975;-79
2022/07/07 04:04:25;;;;;;;;;;;;;;;24.38;34.16;99892.97;5016528;28;20366;-82
2022/07/07 04:06:51;;;;;;;;;;;;;;;24.39;34.50;99889.16;5016498;28;19933;-79
2022/07/07 04:09:16;;;;;;;;;;;;;;;24.40;34.29;99885.31;4999006;28;19921;-79
2022/07/07 04:11:41;;;;;;;;;;;;;;;24.43;34.62;99894.84;5016008;28;20279;-82
2022/07/07 04:14:06;;;;;;;;;;;;;;;24.47;34.44;99902.13;5016387;28;19914;-79
2022/07/07 04:16:33;;;;;;;;;;;;;;;24.45;34.66;99896.16;5016045;28;19953;-80
2022/07/07 04:18:58;;;;;;;;;;;;;;;24.46;34.55;99888.81;5015889;28;19913;-81
2022/07/07 04:21:23;;;;;;;;;;;;;;;24.50;34.76;99890.63;5016198;28;19923;-79
2022/07/07 04:23:49;;;;;;;;;;;;;;;24.48;34.75;99887.41;5015904;28;19944;-80
2022/07/07 04:26:14;;;;;;;;;;;;;;;24.48;34.75;99895.59;5015838;28;19921;-82
2022/07/07 04:28:39;;;;;;;;;;;;;;;24.45;34.66;99893.44;5015873;28;19914;-79
2022/07/07 04:31:04;;;;;;;;;;;;;;;24.48;34.87;99886.59;5016014;28;19924;-79
2022/07/07 04:33:30;;;;;;;;;;;;;;;24.50;34.85;99887.91;5015575;28;20432;-81
2022/07/07 04:35:55;;;;;;;;;;;;;;;24.51;34.84;99892.28;5015987;28;19917;-78
2022/07/07 04:38:20;;;;;;;;;;;;;;;24.50;35.21;99889.84;5016423;28;19913;-78
2022/07/07 04:40:46;;;;;;;;;;;;;;;24.54;35.02;99897.19;5015831;28;19968;-79
2022/07/07 04:43:11;;;;;;;;;;;;;;;24.50;35.09;99892.56;5015750;28;20292;-81
2022/07/07 04:45:36;;;;;;;;;;;;;;;24.57;35.32;99886.78;5015374;28;19913;-79
2022/07/07 04:48:02;;;;;;;;;;;;;;;24.61;35.30;99888.63;5015720;28;19924;-80
2022/07/07 04:50:27;;;;;;;;;;;;;;;24.54;35.29;99879.97;5015353;28;20015;-81
2022/07/07 04:52:55;;;;;;;;;;;;;;;24.49;35.32;99883.56;5015151;28;19920;-79
2022/07/07 04:55:20;;;;;;;;;;;;;;;24.60;35.27;99892.47;5015153;28;20384;-80
2022/07/07 04:57:46;;;;;;;;;;;;;;;24.58;35.49;99880.19;5015377;28;19921;-82
2022/07/07 05:00:11;;;;;;;;;;;;;;;24.54;35.40;99886.25;5017281;28;19897;-80
2022/07/07 05:02:36;;;;;;;;;;;;;;;24.58;35.27;99881.03;5017112;28;20422;-79
2022/07/07 05:05:02;;;;;;;;;;;;;;;24.59;35.59;99890.81;5015745;28;20335;-81
2022/07/07 05:07:27;;;;;;;;;;;;;;;24.66;35.52;99885.00;5015585;28;19913;-79
2022/07/07 05:09:52;;;;;;;;;;;;;;;24.55;35.22;99882.41;5013732;28;20012;-79
2022/07/07 05:12:18;;;;;;;;;;;;;;;24.61;35.43;99874.16;5014268;28;19967;-80
2022/07/07 05:14:43;;;;;;;;;;;;;;;24.65;35.54;99886.13;5019616;28;19941;-79
2022/07/07 05:17:09;;;;;;;;;;;;;;;24.60;35.64;99884.28;5016527;28;19913;-78
2022/07/07 05:19:34;;;;;;;;;;;;;;;24.65;35.51;99877.94;5014714;28;19924;-79
2022/07/07 05:21:59;;;;;;;;;;;;;;;24.64;35.41;99885.28;5016923;28;19989;-82
2022/07/07 05:24:25;;;;;;;;;;;;;;;24.60;35.69;99886.19;5005281;28;19918;-78
2022/07/07 05:26:50;;;;;;;;;;;;;;;24.66;35.54;99882.28;4994812;28;20037;-78
2022/07/07 05:29:15;;;;;;;;;;;;;;;24.65;35.63;99881.47;4996409;28;20276;-81
2022/07/07 05:31:40;;;;;;;;;;;;;;;24.69;35.65;99877.03;4996217;28;19918;-80
2022/07/07 05:34:06;;;;;;;;;;;;;;;24.65;35.79;99875.19;4997303;28;20372;-80
2022/07/07 05:36:31;;;;;;;;;;;;;;;24.67;35.89;99876.53;4998248;28;20007;-77
2022/07/07 05:38:57;;;;;;;;;;;;;;;24.61;35.94;99876.88;5015638;28;19913;-79
2022/07/07 05:41:22;;;;;;;;;;;;;;;24.56;36.12;99877.78;5015510;28;19924;-81
2022/07/07 05:43:48;;;;;;;;;;;;;;;24.51;36.69;99880.53;4997341;28;20016;-79
2022/07/07 05:46:13;;;;;;;;;;;;;;;24.61;36.38;99869.53;5014708;28;19913;-79
2022/07/07 05:48:38;;;;;;;;;;;;;;;24.70;36.37;99872.41;5014954;28;19915;-81
2022/07/07 05:51:04;;;;;;;;;;;;;;;24.68;36.47;99869.13;5014205;28;19921;-79
2022/07/07 05:53:29;;;;;;;;;;;;;;;24.75;36.31;99861.41;5014664;28;20008;-78
2022/07/07 05:55:55;;;;;;;;;;;;;;;24.72;36.74;99870.19;5014046;28;19917;-78
2022/07/07 05:58:21;;;;;;;;;;;;;;;24.71;36.67;99863.06;5014433;28;20000;-81
2022/07/07 06:00:47;;;;;;;;;;;;;;;24.75;36.44;99864.13;4996830;28;20431;-80
2022/07/07 06:03:12;;;;;;;;;;;;;;;24.65;36.90;99864.28;5014247;28;19960;-80
2022/07/07 06:05:37;;;;;;;;;;;;;;;24.69;36.61;99855.19;5014137;28;19952;-80
2022/07/07 06:08:02;;;;;;;;;;;;;;;24.79;36.20;99859.69;5014567;28;19980;-82
2022/07/07 06:10:28;;;;;;;;;;;;;;;24.71;36.55;99855.69;5014617;28;20291;-78
2022/07/07 06:12:54;;;;;;;;;;;;;;;24.80;36.39;99858.59;5014851;28;19967;-79
2022/07/07 06:15:20;;;;;;;;;;;;;;;24.68;36.68;99856.28;5014749;28;20280;-80
2022/07/07 06:17:46;;;;;;;;;;;;;;;24.72;36.37;99856.53;4997311;28;20379;-81
2022/07/07 06:20:12;;;;;;;;;;;;;;;24.83;36.19;99859.91;5000951;28;19914;-80
2022/07/07 06:22:37;;;;;;;;;;;;;;;24.78;36.53;99858.06;5007632;28;19920;-80
2022/07/07 06:25:03;;;;;;;;;;;;;;;24.83;36.18;99860.72;5027014;28;20003;-80
2022/07/07 06:27:28;;;;;;;;;;;;;;;24.95;36.15;99867.66;5031971;28;19913;-79
2022/07/07 06:29:55;;;;;;;;;;;;;;;24.96;36.12;99867.38;5013493;28;19921;-79
2022/07/07 06:32:21;;;;;;;;;;;;;;;24.98;35.90;99865.16;5031323;28;19913;-78
2022/07/07 06:34:46;;;;;;;;;;;;;;;24.90;36.15;99861.16;5026965;28;20380;-77
2022/07/07 06:37:12;;;;;;;;;;;;;;;24.92;36.24;99858.97;5030582;28;19929;-79
2022/07/07 06:39:37;;;;;;;;;;;;;;;24.86;36.49;99857.41;5031058;28;19905;-82
2022/07/07 06:42:02;;;;;;;;;;;;;;;24.84;36.59;99850.63;5029992;28;19918;-81
2022/07/07 06:44:30;;;;;;;;;;;;;;;24.87;36.53;99855.47;5033498;28;19967;-83
2022/07/07 06:46:59;;;;;;;;;;;;;;;24.81;36.39;99852.00;5036200;28;19996;-82
2022/07/07 06:49:25;;;;;;;;;;;;;;;24.78;36.74;99844.38;5039124;28;19917;-81
2022/07/07 06:51:50;;;;;;;;;;;;;;;24.88;36.46;99851.63;5036005;28;19913;-80
2022/07/07 06:54:15;;;;;;;;;;;;;;;24.93;36.27;99844.16;5030660;28;19913;-78
2022/07/07 06:56:41;;;;;;;;;;;;;;;24.91;36.33;99849.13;5029455;28;19913;-79
2022/07/07 06:59:06;;;;;;;;;;;;;;;24.86;36.49;99843.72;5021047;28;19959;-80
2022/07/07 07:01:31;;;;;;;;;;;;;;;24.91;36.17;99843.66;5017785;28;19920;-81
2022/07/07 07:03:57;;;;;;;;;;;;;;;24.93;36.33;99849.63;5018072;28;19913;-80
2022/07/07 07:06:22;;;;;;;;;;;;;;;24.95;36.07;99841.13;5017570;28;19914;-80
2022/07/07 07:08:48;;;;;;;;;;;;;;;24.91;36.15;99842.84;5017797;28;19913;-80
2022/07/07 07:11:13;;;;;;;;;;;;;;;24.80;36.56;99834.00;5017913;28;19992;-81
2022/07/07 07:13:38;;;;;;;;;;;;;;;24.87;36.17;99836.34;5017450;28;19913;-81
2022/07/07 07:16:03;;;;;;;;;;;;;;;24.97;35.99;99841.66;5017173;28;20277;-81
2022/07/07 07:18:29;;;;;;;;;;;;;;;24.86;36.16;99837.47;5017766;28;19913;-80
2022/07/07 07:20:54;;;;;;;;;;;;;;;24.93;36.00;99835.97;5017283;28;19921;-78
2022/07/07 07:23:19;;;;;;;;;;;;;;;24.93;35.80;99838.69;5016877;28;19920;-79
2022/07/07 07:25:45;;;;;;;;;;;;;;;24.81;36.33;99838.34;4997319;28;19918;-80
2022/07/07 07:28:10;;;;;;;;;;;;;;;24.80;36.25;99839.47;4997126;28;20012;-82
2022/07/07 07:30:35;;;;;;;;;;;;;;;24.83;35.94;99835.31;4997399;28;19977;-80
2022/07/07 07:33:00;;;;;;;;;;;;;;;24.86;36.15;99832.78;4996527;28;20289;-79
2022/07/07 07:35:26;;;;;;;;;;;;;;;24.83;36.18;99835.31;5013601;28;19929;-80
2022/07/07 07:37:51;;;;;;;;;;;;;;;24.92;36.00;99830.78;5016499;28;19952;-83
2022/07/07 07:40:16;;;;;;;;;;;;;;;24.91;35.63;99834.66;5016347;28;19913;-81
2022/07/07 07:42:42;;;;;;;;;;;;;;;24.84;35.97;99832.28;5016830;28;20368;-80
2022/07/07 07:45:11;;;;;;;;;;;;;;;24.92;35.48;99834.34;5016552;28;19959;-79
2022/07/07 07:47:40;;;;;;;;;;;;;;;24.89;35.74;99832.22;5016380;28;19913;-79
2022/07/07 07:50:06;;;;;;;;;;;;;;;24.83;35.80;99840.78;5016208;28;19913;-80
2022/07/07 07:52:31;;;;;;;;;;;;;;;24.94;35.42;99834.06;5016087;28;20261;-81
2022/07/07 07:54:56;;;;;;;;;;;;;;;24.87;35.65;99833.59;5016338;28;19917;-83
2022/07/07 07:57:22;;;;;;;;;;;;;;;24.90;35.42;99836.56;5016477;28;19913;-80
2022/07/07 07:59:47;;;;;;;;;;;;;;;25.01;35.00;99836.41;5016280;28;19920;-80
2022/07/07 08:02:12;;;;;;;;;;;;;;;25.11;35.18;99838.97;5015878;28;20316;-79
2022/07/07 08:04:37;;;;;;;;;;;;;;;25.01;34.95;99830.94;5016295;28;19913;-80
2022/07/07 08:07:03;;;;;;;;;;;;;;;25.02;35.10;99835.28;4998410;28;20332;-83
2022/07/07 08:09:28;;;;;;;;;;;;;;;25.01;34.71;99834.50;5016330;28;19999;-81
2022/07/07 08:11:53;;;;;;;;;;;;;;;25.14;34.59;99837.56;4998549;28;19935;-80
2022/07/07 08:14:18;;;;;;;;;;;;;;;25.08;34.85;99840.38;5015789;28;19913;-79
2022/07/07 08:16:44;;;;;;;;;;;;;;;25.08;34.58;99831.38;5016076;28;20035;-80
2022/07/07 08:19:09;;;;;;;;;;;;;;;25.12;34.64;99832.41;4998357;28;20331;-80
2022/07/07 08:21:35;;;;;;;;;;;;;;;25.11;34.72;99834.34;5015590;28;19921;-82
2022/07/07 08:24:00;;;;;;;;;;;;;;;25.13;34.35;99831.31;4997961;28;20030;-81
2022/07/07 08:26:26;;;;;;;;;;;;;;;25.20;34.66;99833.63;5015889;28;19913;-79
2022/07/07 08:28:51;;;;;;;;;;;;;;;25.18;34.44;99839.41;4998346;28;20372;-80
2022/07/07 08:31:16;;;;;;;;;;;;;;;25.22;34.53;99842.38;5015378;28;20330;-79
2022/07/07 08:33:42;;;;;;;;;;;;;;;25.19;34.29;99835.56;4997799;28;19929;-82
2022/07/07 08:36:07;;;;;;;;;;;;;;;25.10;34.55;99831.88;5015302;28;19921;-82
2022/07/07 08:38:32;;;;;;;;;;;;;;;25.09;34.46;99835.72;5014687;28;19909;-81
2022/07/07 08:40:58;;;;;;;;;;;;;;;25.04;34.49;99833.06;5023145;23;20295;-81
2022/07/07 08:43:23;;;;;;;;;;;;;;;25.13;34.40;99831.31;5016137;28;20279;-80
2022/07/07 08:45:48;;;;;;;;;;;;;;;25.11;34.16;99828.03;5015194;28;19985;-81
2022/07/07 08:48:14;;;;;;;;;;;;;;;25.15;33.74;99822.78;4998645;28;20360;-84
2022/07/07 08:50:39;;;;;;;;;;;;;;;25.24;34.04;99831.94;5016451;28;19986;-82
2022/07/07 08:53:04;;;;;;;;;;;;;;;25.08;34.06;99828.66;5016294;28;19914;-86
2022/07/07 08:55:30;;;;;;;;;;;;;;;25.17;34.06;99815.91;4998590;28;20009;-82
2022/07/07 08:57:55;;;;;;;;;;;;;;;25.00;34.36;99816.44;5016241;28;20012;-82
2022/07/07 09:00:22;;;;;;;;;;;;;;;24.99;34.42;99816.75;4999475;28;19913;-82
2022/07/07 09:02:47;;;;;;;;;;;;;;;25.07;33.79;99816.88;5015929;28;19913;-81
2022/07/07 09:05:12;;;;;;;;;;;;;;;25.10;33.93;99829.16;5015827;28;19920;-83
2022/07/07 09:07:55;;;;;;;;;;;;;;;25.04;34.29;99814.78;5015975;28;19920;-83
2022/07/07 09:10:34;;;;;;;;;;;;;;;25.12;33.52;99824.19;5016069;28;19968;-80
2022/07/07 09:12:59;;;;;;;;;;;;;;;25.15;33.68;99815.41;5015605;28;19920;-80
2022/07/07 09:15:24;;;;;;;;;;;;;;;25.13;33.69;99823.09;5015490;28;19914;-81
2022/07/07 09:17:50;;;;;;;;;;;;;;;25.14;33.85;99810.22;5015955;28;19967;-82
2022/07/07 09:20:15;;;;;;;;;;;;;;;25.22;33.47;99818.56;5015387;28;20275;-79
2022/07/07 09:22:53;;;;;;;;;;;;;;;25.23;33.61;99814.72;5015835;28;19913;-79
2022/07/07 09:25:19;;;;;;;;;;;;;;;25.07;33.25;99816.06;5015410;28;19987;-80
2022/07/07 09:27:48;;;;;;;;;;;;;;;25.06;33.71;99820.75;4997950;28;19964;-80
2022/07/07 09:30:13;;;;;;;;;;;;;;;24.98;33.45;99823.34;5015736;28;19956;-79
2022/07/07 09:32:45;;;;;;;;;;;;;;;24.96;33.83;99817.34;5015540;28;19945;-78
2022/07/07 09:38:14;;;;;;;;;;;;;;;25.00;33.37;99810.19;5014865;28;20008;-83
2022/07/07 09:41:08;;;;;;;;;;;;;;;24.98;33.81;99817.88;5014942;28;19922;-82
2022/07/07 09:43:37;;;;;;;;;;;;;;;24.92;33.60;99822.59;4954931;29;19930;-81
2022/07/07 09:46:08;;;;;;;;;;;;;;;24.92;33.57;99817.97;4955016;29;19965;-81
2022/07/07 09:48:34;;;;;;;;;;;;;;;24.95;33.44;99824.72;4954919;29;20356;-82
2022/07/07 09:51:11;;;;;;;;;;;;;;;24.92;33.52;99817.13;4954700;29;19965;-80
2022/07/07 09:53:51;;;;;;;;;;;;;;;24.97;33.71;99827.19;4955102;29;19915;-82
2022/07/07 09:56:16;;;;;;;;;;;;;;;24.84;33.72;99818.63;4939007;28;20265;-81
2022/07/07 09:58:41;;;;;;;;;;;;;;;24.88;33.41;99813.38;4955090;29;20046;-81
2022/07/07 10:01:07;;;;;;;;;;;;;;;24.88;33.54;99818.84;4939516;29;19981;-79
2022/07/07 10:03:32;;;;;;;;;;;;;;;24.76;33.84;99830.22;4939878;29;19914;-79
2022/07/07 10:05:57;;;;;;;;;;;;;;;24.72;34.01;99838.19;4938832;29;19929;-80
2022/07/07 10:08:22;;;;;;;;;;;;;;;24.69;34.00;99837.97;4938988;29;19925;-81
2022/07/07 10:10:48;;;;;;;;;;;;;;;24.71;33.93;99841.22;4955158;29;19918;-80
2022/07/07 10:13:13;;;;;;;;;;;;;;;24.70;34.03;99829.50;4939190;29;19914;-82
2022/07/07 10:15:38;;;;;;;;;;;;;;;24.80;33.91;99831.28;4939174;29;19921;-80
2022/07/07 10:18:05;;;;;;;;;;;;;;;24.79;34.03;99853.41;4954257;29;20409;-80
2022/07/07 10:20:30;;;;;;;;;;;;;;;25.05;33.73;99845.66;4993282;28;19920;-80
2022/07/07 10:22:55;;;;;;;;;;;;;;;25.13;33.55;99842.25;5013708;28;19917;-79
2022/07/07 10:25:21;;;;;;;;;;;;;;;25.13;33.24;99844.97;5000758;28;20283;-81
2022/07/07 10:27:46;;;;;;;;;;;;;;;25.12;33.39;99840.59;4995028;28;19914;-82
2022/07/07 10:30:26;;;;;;;;;;;;;;;25.13;33.54;99858.66;4993680;28;19920;-79
2022/07/07 10:32:55;;;;;;;;;;;;;;;25.17;33.40;99859.66;4994947;28;19917;-82
2022/07/07 10:35:23;;;;;;;;;;;;;;;25.18;33.44;99865.94;4994805;28;20012;-80
2022/07/07 10:37:49;;;;;;;;;;;;;;;25.08;33.48;99873.19;4995520;28;19917;-80
2022/07/07 10:40:20;;;;;;;;;;;;;;;25.11;33.73;99894.47;5003072;28;20372;-79
2022/07/07 10:42:48;;;;;;;;;;;;;;;25.09;33.67;99904.91;5014593;28;20349;-80
2022/07/07 10:45:14;;;;;;;;;;;;;;;25.04;33.79;99915.09;5014422;28;19913;-80
2022/07/07 10:47:39;;;;;;;;;;;;;;;25.16;33.28;99911.91;5014740;28;19917;-80
2022/07/07 10:50:21;;;;;;;;;;;;;;;25.17;33.60;99917.06;5014691;28;19950;-82
2022/07/07 10:52:46;;;;;;;;;;;;;;;25.20;33.58;99919.22;5014939;28;19913;-79
2022/07/07 10:55:11;;;;;;;;;;;;;;;25.24;33.60;99922.97;5014712;28;19913;-83
2022/07/07 10:57:43;;;;;;;;;;;;;;;25.17;33.66;99917.06;5014823;28;20370;-80
2022/07/07 11:00:12;;;;;;;;;;;;;;;25.19;33.87;99911.31;4997014;28;20359;-81
2022/07/07 11:02:48;;;;;;;;;;;;;;;25.26;33.67;99920.78;4997298;28;19924;-80
2022/07/07 11:05:13;;;;;;;;;;;;;;;25.20;33.95;99919.22;5014493;28;20010;-84
2022/07/07 11:07:40;;;;;;;;;;;;;;;25.26;33.60;99918.06;5014808;28;19965;-79
2022/07/07 11:10:09;;;;;;;;;;;;;;;25.18;33.73;99918.72;5017095;28;19914;-79
2022/07/07 11:12:37;;;;;;;;;;;;;;;25.20;33.72;99916.50;5018538;28;19920;-80
2022/07/07 11:15:18;;;;;;;;;;;;;;;25.24;33.93;99920.25;5018471;28;19914;-77
2022/07/07 11:17:53;;;;;;;;;;;;;;;25.23;33.79;99915.91;5018088;28;19959;-80
2022/07/07 11:20:19;;;;;;;;;;;;;;;25.25;33.60;99918.31;5018136;28;20320;-83
2022/07/07 11:22:48;;;;;;;;;;;;;;;25.20;33.92;99919.22;5018596;28;19913;-80
2022/07/07 11:25:14;;;;;;;;;;;;;;;25.32;33.77;99923.44;5018460;28;20304;-81
2022/07/07 11:27:39;;;;;;;;;;;;;;;25.28;33.99;99921.31;5017925;28;19921;-82
2022/07/07 11:30:05;;;;;;;;;;;;;;;25.25;33.77;99916.44;5000721;28;20007;-81
2022/07/07 11:32:36;;;;;;;;;;;;;;;25.23;34.15;99915.91;5017999;28;20433;-79
2022/07/07 11:35:05;;;;;;;;;;;;;;;25.25;34.04;99915.59;5017926;28;19913;-82
2022/07/07 11:37:31;;;;;;;;;;;;;;;25.28;33.98;99921.31;5017550;28;19913;-80
2022/07/07 11:39:56;;;;;;;;;;;;;;;25.26;33.77;99919.97;5017228;28;20375;-83
2022/07/07 11:42:21;;;;;;;;;;;;;;;25.23;34.18;99918.63;5017644;28;19913;-80
2022/07/07 11:44:47;;;;;;;;;;;;;;;25.28;34.23;99921.31;5018241;28;19988;-79
2022/07/07 11:47:12;;;;;;;;;;;;;;;25.26;34.27;99914.50;5017781;28;20321;-79
2022/07/07 11:49:39;;;;;;;;;;;;;;;25.25;34.12;99915.59;5017582;28;19918;-79
2022/07/07 11:52:04;;;;;;;;;;;;;;;25.30;34.09;99913.63;5017727;28;19913;-79
2022/07/07 11:54:29;;;;;;;;;;;;;;;25.30;34.21;99908.16;5017890;28;19959;-79
2022/07/07 11:56:55;;;;;;;;;;;;;;;25.24;34.39;99909.31;5018344;28;20051;-81
2022/07/07 11:59:23;;;;;;;;;;;;;;;25.29;34.35;99905.72;5018556;28;19920;-83
2022/07/07 12:01:53;;;;;;;;;;;;;;;25.35;34.20;99895.50;5018927;28;19980;-83
2022/07/07 12:04:20;;;;;;;;;;;;;;;25.23;34.40;99895.94;5018433;28;19924;-84
2022/07/07 12:06:46;;;;;;;;;;;;;;;25.14;34.64;99898.53;5018736;28;20032;-81
2022/07/07 12:09:13;;;;;;;;;;;;;;;25.08;34.80;99900.53;5018858;28;19945;-82
2022/07/07 12:11:40;;;;;;;;;;;;;;;25.22;34.39;99902.53;5018426;28;19913;-81
2022/07/07 12:14:07;;;;;;;;;;;;;;;25.22;34.32;99897.84;5019337;28;19970;-81
2022/07/07 12:16:45;;;;;;;;;;;;;;;25.19;34.53;99901.19;5017832;28;20364;-80
2022/07/07 12:19:10;;;;;;;;;;;;;;;25.19;34.56;99897.66;5018367;28;19913;-82
2022/07/07 12:21:41;;;;;;;;;;;;;;;25.23;34.46;99901.41;5018111;28;19913;-80
2022/07/07 12:24:06;;;;;;;;;;;;;;;25.28;34.43;99887.69;5016022;28;19913;-81
2022/07/07 12:26:41;;;;;;;;;;;;;;;25.22;34.27;99892.41;4998818;28;19921;-81
2022/07/07 12:29:08;;;;;;;;;;;;;;;25.18;34.24;99888.63;4998510;28;19967;-80
2022/07/07 12:31:33;;;;;;;;;;;;;;;25.18;34.48;99887.81;4998359;28;20479;-82
2022/07/07 12:34:08;;;;;;;;;;;;;;;25.11;34.54;99878.06;4997497;28;19926;-80
2022/07/07 12:36:33;;;;;;;;;;;;;;;25.12;34.64;99873.41;4998140;28;19913;-81
2022/07/07 12:38:59;;;;;;;;;;;;;;;25.09;34.65;99883.03;4997369;28;20055;-83
2022/07/07 12:41:27;;;;;;;;;;;;;;;25.16;34.56;99882.63;5016463;28;19991;-82
2022/07/07 12:43:52;;;;;;;;;;;;;;;25.12;34.57;99873.41;5017753;28;20004;-83
2022/07/07 12:46:18;;;;;;;;;;;;;;;25.20;34.48;99875.47;5017787;28;19963;-85